Time;durP1;ratioP1;P1;durP2;ratioP2;P2;SDS_P1;SDS_P2;PMS_P1;PMS_P2;Temp;Humidity;BMP_temperature;BMP_pressure;BME280_temperature;BME280_humidity;BME280_pressure;Samples;Min_cycle;Max_cycle;Signal;HPM_P1;HPM_P2
2023/01/18 00:00:10;;;;;;;7.70;5.30;;;;;;;6.72;46.92;94994.06;8315809;28;20245;-75
2023/01/18 00:04:13;;;;;;;6.03;4.73;;;;;;;6.70;47.26;94988.22;8316537;28;20389;-74
2023/01/18 00:08:17;;;;;;;5.97;4.83;;;;;;;6.66;47.94;94984.22;8316496;28;20230;-74
2023/01/18 00:12:20;;;;;;;7.23;5.37;;;;;;;6.60;48.40;94982.13;8316109;28;20225;-75
2023/01/18 00:16:24;;;;;;;9.00;5.40;;;;;;;6.65;49.12;94982.59;8316527;28;20472;-73
2023/01/18 00:20:28;;;;;;;7.43;5.17;;;;;;;6.65;49.39;94992.88;8316413;28;20230;-73
2023/01/18 00:24:32;;;;;;;7.53;5.37;;;;;;;6.62;49.61;94982.81;8316179;28;20284;-73
2023/01/18 00:28:35;;;;;;;8.10;5.87;;;;;;;6.64;49.97;94991.22;8316020;28;20418;-73
2023/01/18 00:32:38;;;;;;;8.30;6.07;;;;;;;6.62;49.88;94986.19;8315979;28;20221;-73
2023/01/18 00:36:40;;;;;;;7.50;5.47;;;;;;;6.61;49.82;94988.91;8315877;28;20296;-74
2023/01/18 00:40:45;;;;;;;6.77;5.30;;;;;;;6.59;49.66;94994.16;8315195;28;20238;-73
2023/01/18 00:44:47;;;;;;;6.00;5.17;;;;;;;6.36;50.46;94982.22;8315307;28;20230;-73
2023/01/18 00:48:51;;;;;;;8.93;4.83;;;;;;;6.29;50.70;94956.16;8315461;28;20253;-73
2023/01/18 00:52:56;;;;;;;5.50;4.50;;;;;;;6.55;50.00;94973.94;8315293;28;20222;-73
2023/01/18 00:57:01;;;;;;;5.23;4.43;;;;;;;6.38;50.22;94985.50;8315187;28;20226;-74
2023/01/18 01:01:04;;;;;;;5.77;4.87;;;;;;;6.39;49.74;94982.81;8314841;28;20343;-74
2023/01/18 01:09:37;;;;;;;6.60;4.90;;;;;;;6.35;50.24;94996.81;8314369;28;20522;-74
2023/01/18 01:26:42;;;;;;;6.27;4.90;;;;;;;6.40;50.98;95011.91;8313745;28;20222;-74
2023/01/18 01:30:46;;;;;;;5.57;4.60;;;;;;;6.29;51.24;94996.47;8313684;28;20222;-74
2023/01/18 01:34:49;;;;;;;5.80;4.67;;;;;;;6.33;51.32;95010.72;8313942;28;20225;-74
2023/01/18 01:38:52;;;;;;;6.20;4.80;;;;;;;6.36;51.13;95011.31;8313691;28;20518;-74
2023/01/18 01:42:55;;;;;;;5.13;4.63;;;;;;;6.24;51.15;95007.91;8313677;28;20240;-74
2023/01/18 01:47:03;;;;;;;4.97;4.47;;;;;;;6.29;51.49;95004.19;8313758;28;20280;-74
2023/01/18 01:51:06;;;;;;;6.37;5.17;;;;;;;6.19;51.70;95010.00;8313783;28;20241;-74
2023/01/18 01:55:12;;;;;;;5.37;4.40;;;;;;;6.29;51.28;95005.00;8313458;28;20226;-74
2023/01/18 01:59:15;;;;;;;5.30;4.73;;;;;;;6.32;51.51;95004.78;8313544;28;20221;-73
2023/01/18 02:03:19;;;;;;;6.77;5.03;;;;;;;6.30;51.52;95009.19;8313591;28;20459;-74
2023/01/18 02:07:25;;;;;;;6.50;5.37;;;;;;;6.34;51.14;95007.22;8313398;28;20240;-73
2023/01/18 02:11:28;;;;;;;6.00;4.63;;;;;;;6.34;51.35;95009.78;8313424;28;20222;-73
2023/01/18 02:15:34;;;;;;;5.77;4.90;;;;;;;6.37;51.85;95007.81;8313423;28;20230;-73
2023/01/18 02:20:03;;;;;;;5.27;4.40;;;;;;;6.37;51.14;95014.72;8313141;28;20230;-73
2023/01/18 02:24:37;;;;;;;5.33;4.50;;;;;;;6.19;51.23;95019.47;8315421;28;20489;-73
2023/01/18 02:28:52;;;;;;;4.90;4.33;;;;;;;6.26;51.13;95010.34;8319674;28;20243;-73
2023/01/18 02:33:01;;;;;;;5.30;4.47;;;;;;;6.30;51.30;95006.63;8319042;28;20233;-73
2023/01/18 02:37:07;;;;;;;6.13;4.53;;;;;;;6.31;51.56;95015.16;8319551;28;20232;-73
2023/01/18 02:41:13;;;;;;;7.33;4.93;;;;;;;6.11;51.84;94993.50;8319429;28;20237;-73
2023/01/18 02:49:42;;;;;;;6.30;4.53;;;;;;;6.13;51.62;94997.63;8319259;28;20222;-73
2023/01/18 02:53:46;;;;;;;6.37;5.00;;;;;;;6.32;51.80;95015.06;8318681;28;20525;-74
2023/01/18 02:57:49;;;;;;;5.90;4.83;;;;;;;6.29;52.06;95017.84;8318989;28;20233;-74
2023/01/18 03:01:56;;;;;;;5.20;4.57;;;;;;;6.28;51.83;95025.66;8318745;28;20244;-74
2023/01/18 03:06:01;;;;;;;4.87;4.37;;;;;;;6.32;52.27;95022.78;8318327;28;20238;-73
2023/01/18 03:10:07;;;;;;;5.20;4.70;;;;;;;6.35;51.84;95024.28;8318435;28;20276;-73
2023/01/18 03:14:18;;;;;;;6.30;4.80;;;;;;;6.35;51.63;95014.00;8318358;28;20230;-74
2023/01/18 03:18:27;;;;;;;6.17;4.70;;;;;;;6.24;52.22;95018.19;8317988;28;20533;-74
2023/01/18 03:26:54;;;;;;;5.20;4.50;;;;;;;6.16;51.91;95017.94;8317626;28;20221;-74
2023/01/18 03:35:27;;;;;;;4.03;3.73;;;;;;;6.21;51.97;95021.00;8317430;28;20218;-73
2023/01/18 03:39:32;;;;;;;5.33;4.43;;;;;;;6.20;52.06;95024.47;8317464;28;20230;-74
2023/01/18 03:43:36;;;;;;;5.10;4.60;;;;;;;6.33;51.64;95024.41;8317375;28;20536;-74
2023/01/18 03:47:39;;;;;;;5.23;4.73;;;;;;;6.34;51.80;95022.63;8317100;28;20237;-74
2023/01/18 03:51:53;;;;;;;5.50;4.30;;;;;;;6.36;51.92;95031.88;8316802;28;20514;-73
2023/01/18 03:55:59;;;;;;;5.27;4.43;;;;;;;6.30;51.65;95042.59;8316902;28;20257;-74
2023/01/18 04:00:04;;;;;;;5.70;4.47;;;;;;;6.33;52.06;95046.72;8316941;28;20261;-74
2023/01/18 04:04:07;;;;;;;5.00;4.50;;;;;;;6.24;52.05;95049.03;8316713;28;20237;-74
2023/01/18 04:08:13;;;;;;;7.23;4.83;;;;;;;6.19;52.28;95045.97;8316672;28;20230;-74
2023/01/18 04:12:16;;;;;;;5.70;4.60;;;;;;;6.11;51.69;95038.03;8316765;28;20242;-74
2023/01/18 04:16:18;;;;;;;5.80;4.87;;;;;;;6.26;52.11;95059.19;8316738;28;20278;-74
2023/01/18 04:20:21;;;;;;;4.90;4.50;;;;;;;6.26;52.20;95049.75;8316358;28;20293;-74
2023/01/18 04:24:26;;;;;;;5.40;4.63;;;;;;;6.30;52.30;95055.44;8316321;28;20238;-74
2023/01/18 04:28:28;;;;;;;5.20;4.70;;;;;;;6.35;52.35;95052.56;8316047;28;20226;-74
2023/01/18 04:32:31;;;;;;;6.03;4.83;;;;;;;6.24;52.04;95064.47;8315908;28;20529;-74
2023/01/18 04:36:34;;;;;;;5.77;4.80;;;;;;;6.30;52.31;95067.50;8316053;28;20230;-75
2023/01/18 04:40:38;;;;;;;5.33;4.83;;;;;;;6.39;51.92;95067.63;8315757;28;20230;-74
2023/01/18 04:44:41;;;;;;;6.87;4.90;;;;;;;6.22;52.25;95068.88;8315485;28;20226;-74
2023/01/18 04:48:44;;;;;;;7.33;5.00;;;;;;;6.42;51.96;95064.84;8314492;28;20513;-74
2023/01/18 04:52:46;;;;;;;6.47;4.97;;;;;;;6.36;51.86;95073.00;8315293;28;20230;-74
2023/01/18 04:56:51;;;;;;;5.10;4.60;;;;;;;6.39;52.50;95080.47;8315372;28;20230;-74
2023/01/18 05:00:53;;;;;;;6.80;5.13;;;;;;;6.37;52.44;95077.22;8315329;28;20240;-74
2023/01/18 05:04:58;;;;;;;5.73;4.37;;;;;;;6.41;51.71;95088.91;8314986;28;20238;-74
2023/01/18 05:09:01;;;;;;;5.63;5.13;;;;;;;6.31;52.56;95100.78;8314928;28;20397;-74
2023/01/18 05:13:06;;;;;;;6.77;5.07;;;;;;;6.19;53.04;95094.00;8315013;28;20233;-74
2023/01/18 05:17:08;;;;;;;5.70;5.10;;;;;;;6.36;52.97;95106.44;8314581;28;20241;-74
2023/01/18 05:21:12;;;;;;;5.93;5.43;;;;;;;6.37;52.89;95108.06;8314517;28;20230;-74
2023/01/18 05:25:14;;;;;;;6.43;5.60;;;;;;;6.40;52.78;95122.44;8314755;28;20218;-74
2023/01/18 05:29:19;;;;;;;7.40;5.90;;;;;;;6.37;53.15;95117.53;8314593;28;20232;-74
2023/01/18 05:33:22;;;;;;;6.37;5.77;;;;;;;6.37;52.87;95122.66;8314491;28;20229;-74
2023/01/18 05:37:25;;;;;;;6.47;5.50;;;;;;;6.31;53.12;95135.97;8314355;28;20238;-73
2023/01/18 05:41:28;;;;;;;7.17;5.90;;;;;;;6.28;53.01;95133.59;8314065;28;20226;-74
2023/01/18 05:45:32;;;;;;;6.43;5.80;;;;;;;6.25;53.00;95145.75;8313570;28;20422;-74
2023/01/18 05:49:35;;;;;;;8.00;6.50;;;;;;;6.23;52.91;95157.91;8314081;28;20252;-73
2023/01/18 05:53:39;;;;;;;6.07;5.47;;;;;;;6.26;53.29;95146.56;8313705;28;20530;-73
2023/01/18 05:57:42;;;;;;;7.07;6.37;;;;;;;6.36;53.53;95154.44;8313028;28;20230;-73
2023/01/18 06:01:46;;;;;;;7.17;5.80;;;;;;;6.32;53.42;95168.44;8313375;28;20230;-73
2023/01/18 06:05:50;;;;;;;6.77;5.83;;;;;;;6.22;53.52;95170.84;8312971;28;20237;-72
2023/01/18 06:09:53;;;;;;;6.50;5.73;;;;;;;6.24;53.70;95176.69;8313444;28;20230;-74
2023/01/18 06:13:55;;;;;;;6.57;5.83;;;;;;;6.26;54.10;95167.97;8313508;28;20222;-73
2023/01/18 06:18:00;;;;;;;7.10;6.40;;;;;;;6.16;53.98;95174.69;8313464;28;20226;-74
2023/01/18 06:22:02;;;;;;;7.43;6.53;;;;;;;6.23;54.23;95169.94;8313156;28;20257;-73
2023/01/18 06:26:05;;;;;;;7.73;6.93;;;;;;;6.26;54.06;95182.53;8313434;28;20233;-73
2023/01/18 06:30:10;;;;;;;9.53;7.13;;;;;;;6.16;53.84;95166.97;8313071;28;20237;-73
2023/01/18 06:34:14;;;;;;;9.20;7.30;;;;;;;6.32;54.00;95194.13;8313192;28;20229;-73
2023/01/18 06:38:17;;;;;;;8.67;7.07;;;;;;;6.04;54.22;95166.09;8313007;28;20238;-73
2023/01/18 06:42:20;;;;;;;9.23;6.63;;;;;;;6.25;54.26;95207.44;8312889;28;20237;-73
2023/01/18 06:46:23;;;;;;;7.20;6.50;;;;;;;6.22;54.46;95206.81;8312642;28;20530;-73
2023/01/18 06:50:27;;;;;;;8.97;7.63;;;;;;;6.25;54.48;95224.59;8312697;28;20222;-73
2023/01/18 06:54:30;;;;;;;8.37;7.57;;;;;;;6.22;54.68;95217.09;8312526;28;20248;-73
2023/01/18 06:58:33;;;;;;;9.47;7.83;;;;;;;6.33;54.69;95229.22;8313057;28;20552;-72
2023/01/18 07:02:36;;;;;;;8.90;7.97;;;;;;;6.33;54.75;95235.16;8312661;28;20226;-73
2023/01/18 07:06:40;;;;;;;8.50;7.60;;;;;;;6.29;54.74;95240.63;8312783;28;20234;-74
2023/01/18 07:10:43;;;;;;;8.87;7.97;;;;;;;6.15;54.86;95231.31;8315462;28;20230;-73
2023/01/18 07:14:46;;;;;;;9.37;8.37;;;;;;;6.23;55.44;95255.56;8318565;28;20230;-73
2023/01/18 07:18:49;;;;;;;8.33;7.43;;;;;;;6.22;55.27;95258.22;8318376;28;20230;-73
2023/01/18 07:22:53;;;;;;;8.00;7.27;;;;;;;6.26;55.37;95278.47;8318153;28;20242;-74
2023/01/18 07:26:58;;;;;;;7.53;6.53;;;;;;;6.32;54.83;95281.53;8318138;28;20226;-73
2023/01/18 07:31:01;;;;;;;6.87;6.17;;;;;;;6.12;55.13;95288.06;8318104;28;21762;-74
2023/01/18 07:35:04;;;;;;;8.60;5.90;;;;;;;5.92;55.45;95282.53;8317604;28;20233;-74
2023/01/18 07:39:09;;;;;;;6.50;5.90;;;;;;;6.24;54.70;95293.19;8317856;28;20229;-73
2023/01/18 07:43:12;;;;;;;7.07;6.37;;;;;;;6.21;54.81;95301.09;8317342;28;20226;-73
2023/01/18 07:47:15;;;;;;;6.97;6.13;;;;;;;6.17;55.19;95291.97;8317546;28;20230;-73
2023/01/18 07:51:18;;;;;;;6.83;6.10;;;;;;;6.23;54.75;95306.13;8317414;28;20256;-73
2023/01/18 07:55:22;;;;;;;5.13;4.63;;;;;;;6.35;54.33;95320.69;8317422;28;20234;-73
2023/01/18 07:59:26;;;;;;;6.67;5.97;;;;;;;6.18;54.96;95321.06;8317360;28;20225;-73
2023/01/18 08:03:29;;;;;;;9.07;6.03;;;;;;;6.20;54.85;95314.88;8316959;28;20242;-73
2023/01/18 08:07:32;;;;;;;5.50;5.10;;;;;;;6.21;54.39;95334.50;8316711;28;20403;-73
2023/01/18 08:11:36;;;;;;;6.27;5.63;;;;;;;6.23;54.89;95345.50;8317094;28;20229;-74
2023/01/18 08:15:39;;;;;;;6.00;5.40;;;;;;;6.21;54.68;95343.97;8316523;28;20234;-74
2023/01/18 08:19:42;;;;;;;7.30;6.60;;;;;;;6.22;54.40;95346.41;8316067;28;20226;-73
2023/01/18 08:23:45;;;;;;;7.73;6.43;;;;;;;6.30;54.55;95352.78;8315261;28;20230;-73
2023/01/18 08:27:49;;;;;;;6.17;5.53;;;;;;;6.41;54.47;95356.25;8316450;28;20222;-74
2023/01/18 08:31:53;;;;;;;6.60;6.00;;;;;;;6.34;54.34;95354.22;8316141;28;20233;-72
2023/01/18 08:35:56;;;;;;;6.00;5.40;;;;;;;6.34;54.45;95364.50;8315964;28;20233;-74
2023/01/18 08:39:58;;;;;;;6.43;5.73;;;;;;;6.32;54.79;95367.19;8315816;28;20234;-73
2023/01/18 08:44:03;;;;;;;5.43;4.93;;;;;;;6.36;54.48;95368.63;8315375;28;20553;-73
2023/01/18 08:48:08;;;;;;;5.63;5.13;;;;;;;6.55;54.15;95380.19;8315617;28;20234;-74
2023/01/18 08:52:10;;;;;;;5.47;4.97;;;;;;;6.50;53.89;95380.50;8315559;28;20226;-74
2023/01/18 08:56:13;;;;;;;4.97;4.47;;;;;;;6.52;54.09;95388.13;8315504;28;20226;-74
2023/01/18 09:00:19;;;;;;;5.53;5.10;;;;;;;6.56;53.82;95390.38;8315311;28;20233;-77
2023/01/18 09:04:22;;;;;;;4.93;4.53;;;;;;;6.48;53.76;95391.84;8314986;28;20230;-74
2023/01/18 09:08:25;;;;;;;5.80;4.53;;;;;;;6.84;62.88;95407.28;8315123;28;20561;-75
2023/01/18 09:12:28;;;;;;;7.00;5.67;;;;;;;10.84;75.80;95414.13;8315343;28;20238;-75
2023/01/18 09:16:32;;;;;;;5.33;4.93;;;;;;;9.49;51.45;95418.38;8315102;28;20222;-77
2023/01/18 09:20:35;;;;;;;6.03;5.53;;;;;;;8.06;51.86;95436.31;8314813;28;20250;-76
2023/01/18 09:24:38;;;;;;;5.10;4.70;;;;;;;7.78;52.06;95421.13;8314285;28;20230;-75
2023/01/18 09:28:42;;;;;;;5.57;5.17;;;;;;;7.69;52.23;95441.59;8314155;28;20218;-76
2023/01/18 09:32:46;;;;;;;5.20;4.70;;;;;;;7.27;52.55;95462.59;8313858;28;20234;-76
2023/01/18 09:36:50;;;;;;;5.43;4.97;;;;;;;7.01;53.17;95459.31;8314378;28;20229;-76
2023/01/18 09:40:53;;;;;;;5.37;4.87;;;;;;;6.86;52.82;95461.19;8314334;28;20244;-75
2023/01/18 09:44:58;;;;;;;4.60;4.23;;;;;;;6.73;52.89;95462.97;8314333;28;20230;-76
2023/01/18 09:49:04;;;;;;;5.00;4.60;;;;;;;6.69;53.37;95479.56;8314151;28;20237;-76
2023/01/18 09:53:17;;;;;;;4.87;4.50;;;;;;;6.49;53.62;95473.19;8313662;28;20226;-75
2023/01/18 09:57:30;;;;;;;4.70;4.23;;;;;;;6.68;52.89;95490.75;8314142;28;20222;-74
2023/01/18 10:01:34;;;;;;;5.10;4.70;;;;;;;6.58;53.69;95506.81;8313909;28;20234;-75
2023/01/18 10:05:44;;;;;;;5.17;4.70;;;;;;;6.24;54.34;95518.53;8313690;28;20447;-74
2023/01/18 10:09:49;;;;;;;5.27;4.77;;;;;;;6.14;54.03;95525.19;8312909;28;20226;-74
2023/01/18 10:13:58;;;;;;;5.50;5.00;;;;;;;5.82;54.37;95467.25;8314098;28;20230;-75
2023/01/18 10:18:01;;;;;;;4.87;4.47;;;;;;;5.87;54.61;95537.13;8313528;28;20241;-75
2023/01/18 10:22:07;;;;;;;6.77;5.03;;;;;;;5.99;54.54;95525.25;8313122;28;20230;-75
2023/01/18 10:26:15;;;;;;;5.07;4.63;;;;;;;6.31;53.60;95542.91;8313378;28;20230;-75
2023/01/18 10:30:42;;;;;;;4.90;4.40;;;;;;;6.28;53.34;95545.66;8313511;28;20431;-74
2023/01/18 10:34:48;;;;;;;4.83;3.97;;;;;;;5.83;54.95;95545.13;8313016;28;20522;-75
2023/01/18 10:38:53;;;;;;;5.83;4.70;;;;;;;6.01;54.33;95540.59;8313812;28;20226;-74
2023/01/18 10:42:59;;;;;;;3.97;3.50;;;;;;;6.10;54.77;95555.41;8313082;28;20588;-75
2023/01/18 10:47:03;;;;;;;4.20;3.90;;;;;;;6.18;54.15;95552.34;8320545;28;20222;-75
2023/01/18 10:51:06;;;;;;;3.80;3.50;;;;;;;6.34;53.47;95572.72;8319221;28;20226;-75
2023/01/18 10:55:16;;;;;;;3.90;3.60;;;;;;;6.34;53.31;95559.84;8319185;28;20226;-75
2023/01/18 10:59:25;;;;;;;3.20;3.00;;;;;;;6.35;53.90;95576.94;8319030;28;20234;-76
2023/01/18 11:03:36;;;;;;;3.63;3.20;;;;;;;6.24;54.43;95590.47;8318853;28;20237;-77
2023/01/18 11:07:39;;;;;;;3.40;3.13;;;;;;;6.47;54.00;95586.41;8319098;28;20241;-75
2023/01/18 11:16:09;;;;;;;3.57;3.27;;;;;;;5.93;54.16;95592.44;8318774;28;20642;-75
2023/01/18 11:20:16;;;;;;;3.03;2.83;;;;;;;6.00;55.17;95601.44;8318555;28;20252;-74
2023/01/18 11:24:23;;;;;;;3.07;2.87;;;;;;;6.21;54.10;95603.56;8318427;28;20580;-75
2023/01/18 11:28:30;;;;;;;3.50;3.20;;;;;;;5.81;55.40;95603.50;8317770;28;20302;-75
2023/01/18 11:32:32;;;;;;;3.67;3.37;;;;;;;6.08;54.83;95611.22;8318153;28;20253;-75
2023/01/18 11:36:37;;;;;;;3.93;3.63;;;;;;;5.68;55.54;95609.38;8318730;28;20226;-75
2023/01/18 11:40:40;;;;;;;3.27;2.97;;;;;;;5.72;55.17;95632.31;8317749;28;20252;-76
2023/01/18 11:44:50;;;;;;;3.80;3.33;;;;;;;5.49;55.69;95629.41;8317184;28;20234;-75
2023/01/18 11:48:58;;;;;;;3.50;3.20;;;;;;;5.74;55.50;95638.19;8317507;28;20397;-75
2023/01/18 11:53:09;;;;;;;4.13;3.60;;;;;;;5.63;55.54;95637.06;8317224;28;20242;-75
2023/01/18 11:57:13;;;;;;;5.07;4.67;;;;;;;5.49;55.63;95619.16;8316736;28;20545;-75
2023/01/18 12:01:45;;;;;;;4.73;4.20;;;;;;;5.75;55.73;95653.50;8317074;28;20529;-75
2023/01/18 12:05:53;;;;;;;4.10;3.80;;;;;;;5.90;55.47;95656.00;8316351;28;20218;-75
2023/01/18 12:09:57;;;;;;;5.70;5.20;;;;;;;5.78;55.85;95678.16;8315043;28;20253;-75
2023/01/18 12:14:04;;;;;;;5.23;4.83;;;;;;;5.92;56.14;95678.13;8315319;28;20466;-75
2023/01/18 12:18:22;;;;;;;5.07;4.67;;;;;;;5.67;57.00;95677.09;8316772;28;20226;-74
2023/01/18 12:22:52;;;;;;;4.90;4.50;;;;;;;5.72;56.67;95687.06;8316415;28;20242;-74
2023/01/18 12:26:58;;;;;;;5.00;4.53;;;;;;;5.61;56.90;95656.06;8316292;28;20223;-75
2023/01/18 12:31:13;;;;;;;5.20;4.80;;;;;;;5.73;56.70;95691.28;8316110;28;21925;-74
2023/01/18 12:35:46;;;;;;;5.83;4.73;;;;;;;5.83;56.49;95707.78;8315869;28;20238;-75
2023/01/18 12:39:58;;;;;;;5.63;5.13;;;;;;;5.81;56.78;95717.31;8315339;28;20304;-75
2023/01/18 12:44:22;;;;;;;5.67;5.10;;;;;;;5.82;56.37;95723.28;8315495;28;20521;-74
2023/01/18 12:48:28;;;;;;;5.40;4.90;;;;;;;5.68;57.08;95732.66;8315771;28;20396;-74
2023/01/18 12:52:39;;;;;;;5.57;4.97;;;;;;;5.51;57.19;95737.97;8315462;28;20222;-74
2023/01/18 12:56:44;;;;;;;5.70;5.20;;;;;;;6.24;55.83;95742.97;8314813;28;20222;-75
2023/01/18 13:00:49;;;;;;;5.50;5.00;;;;;;;5.76;56.98;95754.47;8315208;28;20226;-75
2023/01/18 13:04:54;;;;;;;6.63;5.93;;;;;;;9.73;78.43;95761.91;8315155;28;20293;-75
2023/01/18 13:09:01;;;;;;;4.70;4.20;;;;;;;10.46;58.78;95766.69;8314654;28;20230;-75
2023/01/18 13:13:05;;;;;;;4.93;4.53;;;;;;;8.66;50.16;95777.56;8314864;28;20229;-74
2023/01/18 13:17:11;;;;;;;5.27;4.87;;;;;;;7.77;51.76;95769.91;8314970;28;20245;-74
2023/01/18 13:21:24;;;;;;;5.33;4.93;;;;;;;7.55;52.23;95782.59;8314640;28;20232;-75
2023/01/18 13:25:35;;;;;;;5.30;4.90;;;;;;;7.31;53.59;95785.03;8314478;28;20226;-76
2023/01/18 13:29:38;;;;;;;4.80;4.40;;;;;;;7.24;54.15;95788.03;8314425;28;20426;-76
2023/01/18 13:33:44;;;;;;;5.33;4.83;;;;;;;6.92;54.44;95786.72;8314173;28;20233;-75
2023/01/18 13:37:49;;;;;;;5.00;4.60;;;;;;;6.71;54.67;95814.66;8314224;28;20233;-75
2023/01/18 13:42:24;;;;;;;14.67;12.77;;;;;;;6.90;53.99;95819.44;8313722;28;20430;-74
2023/01/18 13:46:27;;;;;;;17.40;15.10;;;;;;;6.35;55.15;95831.44;8313493;28;20234;-74
2023/01/18 13:50:46;;;;;;;7.73;7.03;;;;;;;6.61;55.05;95835.78;8313405;28;20276;-75
2023/01/18 13:55:02;;;;;;;8.90;6.93;;;;;;;6.64;55.19;95848.47;8313309;28;20237;-75
2023/01/18 13:59:17;;;;;;;5.60;5.10;;;;;;;6.57;55.42;95864.38;8313163;28;20233;-76
2023/01/18 14:03:22;;;;;;;5.30;4.70;;;;;;;6.63;54.93;95875.09;8313124;28;20230;-76
2023/01/18 14:07:25;;;;;;;5.00;4.50;;;;;;;6.30;55.69;95844.56;8312838;28;20236;-79
2023/01/18 14:11:30;;;;;;;9.47;5.50;;;;;;;6.57;55.77;95896.06;8314341;28;20317;-74
2023/01/18 14:15:51;;;;;;;5.17;4.60;;;;;;;6.53;55.12;95904.03;8317529;28;20534;-74
2023/01/18 14:20:03;;;;;;;6.43;4.83;;;;;;;6.40;55.38;95912.50;8314974;28;20233;-74
2023/01/18 14:24:27;;;;;;;5.10;4.70;;;;;;;6.03;56.50;95924.16;8319607;28;20226;-73
2023/01/18 14:28:34;;;;;;;3.97;3.67;;;;;;;6.37;55.69;95938.41;8319350;28;20229;-73
2023/01/18 14:32:44;;;;;;;5.43;4.80;;;;;;;6.36;55.15;95928.19;8319446;28;20279;-73
2023/01/18 14:36:46;;;;;;;7.13;5.17;;;;;;;6.36;55.75;95944.47;8318829;28;20222;-73
2023/01/18 14:40:51;;;;;;;5.27;4.77;;;;;;;6.21;56.04;95953.91;8318983;28;20226;-73
2023/01/18 14:44:55;;;;;;;5.77;4.90;;;;;;;6.52;55.16;95964.94;8318609;28;20230;-73
2023/01/18 14:49:02;;;;;;;5.13;4.57;;;;;;;6.20;55.95;95974.56;8318673;28;20297;-74
2023/01/18 14:53:06;;;;;;;6.40;5.10;;;;;;;6.11;56.08;95967.38;8318623;28;20309;-74
2023/01/18 14:57:13;;;;;;;4.57;4.17;;;;;;;6.30;56.11;95992.84;8318327;28;20230;-74
2023/01/18 15:01:26;;;;;;;4.70;4.30;;;;;;;6.38;55.97;96011.25;8318636;28;20432;-74
2023/01/18 15:05:30;;;;;;;5.73;4.60;;;;;;;6.59;55.33;96012.53;8318280;28;20241;-74
2023/01/18 15:09:36;;;;;;;5.37;4.40;;;;;;;6.32;55.58;96015.00;8318053;28;20421;-74
2023/01/18 15:13:46;;;;;;;4.73;4.13;;;;;;;6.61;55.20;96023.56;8318257;28;20347;-73
2023/01/18 15:17:49;;;;;;;4.77;3.77;;;;;;;6.58;55.17;96036.59;8317752;28;20237;-73
2023/01/18 15:21:53;;;;;;;5.03;4.47;;;;;;;6.07;56.50;96039.53;8318030;28;20432;-73
2023/01/18 15:25:57;;;;;;;6.93;4.90;;;;;;;6.34;56.01;96050.88;8317345;28;20234;-74
2023/01/18 15:30:01;;;;;;;5.50;4.20;;;;;;;6.03;56.29;96062.91;8316968;28;20230;-75
2023/01/18 15:34:04;;;;;;;4.33;3.43;;;;;;;6.12;56.52;96071.84;8317542;28;20230;-74
2023/01/18 15:38:09;;;;;;;5.07;4.50;;;;;;;5.97;56.11;96061.50;8317482;28;20222;-74
2023/01/18 15:42:14;;;;;;;4.73;4.23;;;;;;;6.34;55.84;96082.56;8317323;28;20336;-74
2023/01/18 15:46:17;;;;;;;4.93;4.17;;;;;;;6.35;55.41;96086.78;8316818;28;20257;-75
2023/01/18 15:50:21;;;;;;;5.37;4.83;;;;;;;6.18;55.91;96076.63;8316697;28;20424;-74
2023/01/18 15:54:27;;;;;;;6.27;5.30;;;;;;;6.29;56.08;96105.13;8316675;28;20321;-74
2023/01/18 15:58:34;;;;;;;6.03;5.43;;;;;;;6.00;56.14;96097.31;8317122;28;20252;-74
2023/01/18 16:02:41;;;;;;;5.50;4.83;;;;;;;6.23;55.95;96113.19;8314963;28;20463;-74
2023/01/18 16:06:44;;;;;;;6.93;5.90;;;;;;;5.98;56.63;96124.03;8315886;28;20537;-74
2023/01/18 16:10:50;;;;;;;8.23;5.93;;;;;;;5.93;56.18;96121.66;8316493;28;20237;-74
2023/01/18 16:14:53;;;;;;;9.27;7.03;;;;;;;6.01;56.28;96132.38;8316221;28;20237;-75
2023/01/18 16:19:03;;;;;;;8.53;5.90;;;;;;;6.03;55.82;96132.28;8315803;28;20263;-74
2023/01/18 16:23:08;;;;;;;9.20;5.47;;;;;;;5.99;55.43;96126.50;8315728;28;20226;-74
2023/01/18 16:27:14;;;;;;;6.23;5.17;;;;;;;5.75;55.91;96148.34;8315379;28;20226;-74
2023/01/18 16:31:17;;;;;;;5.60;5.00;;;;;;;5.94;55.70;96146.47;8315506;28;20228;-73
2023/01/18 16:35:22;;;;;;;5.80;4.50;;;;;;;5.99;55.36;96154.75;8315452;28;20230;-75
2023/01/18 16:39:24;;;;;;;6.10;4.97;;;;;;;5.74;56.01;96160.38;8315396;28;20234;-74
2023/01/18 16:43:29;;;;;;;13.57;9.53;;;;;;;5.83;55.93;96174.47;8314426;28;20229;-74
2023/01/18 16:47:31;;;;;;;13.70;10.33;;;;;;;6.05;55.53;96187.84;8314869;28;20253;-73
2023/01/18 16:51:34;;;;;;;21.73;13.90;;;;;;;6.07;55.17;96192.88;8314945;28;20233;-74
2023/01/18 16:55:37;;;;;;;10.27;6.73;;;;;;;5.90;55.72;96203.22;8314904;28;20230;-74
2023/01/18 16:59:42;;;;;;;8.70;6.57;;;;;;;5.96;55.81;96210.63;8314522;28;20235;-74
2023/01/18 17:03:45;;;;;;;8.67;6.27;;;;;;;5.87;55.45;96217.88;8313954;28;20329;-75
2023/01/18 17:07:49;;;;;;;9.33;7.37;;;;;;;6.07;55.37;96227.16;8314134;28;20226;-74
2023/01/18 17:11:53;;;;;;;11.30;7.83;;;;;;;6.07;55.14;96236.56;8314415;28;20285;-75
2023/01/18 17:15:57;;;;;;;9.50;6.23;;;;;;;5.98;55.26;96243.06;8314329;28;20223;-74
2023/01/18 17:20:00;;;;;;;10.93;7.13;;;;;;;6.05;55.19;96248.69;8314131;28;20573;-74
2023/01/18 17:24:03;;;;;;;6.90;5.43;;;;;;;6.01;55.03;96255.72;8314139;28;20230;-73
2023/01/18 17:28:07;;;;;;;7.40;6.10;;;;;;;6.02;55.00;96259.97;8314186;28;20428;-74
2023/01/18 17:32:11;;;;;;;9.10;6.87;;;;;;;6.15;54.80;96264.44;8313781;28;20230;-74
2023/01/18 17:36:14;;;;;;;11.77;8.33;;;;;;;6.10;54.64;96277.53;8313931;28;20226;-75
2023/01/18 17:40:18;;;;;;;9.40;7.10;;;;;;;5.93;55.08;96286.09;8313439;28;20252;-75
2023/01/18 17:44:35;;;;;;;7.93;6.20;;;;;;;6.02;54.87;96295.94;8313742;28;20400;-74
2023/01/18 17:48:40;;;;;;;8.93;6.13;;;;;;;6.04;54.90;96306.97;8313401;28;20222;-73
2023/01/18 17:52:43;;;;;;;8.43;6.90;;;;;;;6.17;54.38;96306.31;8312498;28;20233;-74
2023/01/18 17:56:46;;;;;;;6.80;6.10;;;;;;;5.88;55.33;96303.50;8313210;28;20246;-74
2023/01/18 18:00:48;;;;;;;8.43;6.77;;;;;;;5.90;55.40;96306.81;8313446;28;20288;-74
2023/01/18 18:04:53;;;;;;;8.57;6.47;;;;;;;5.94;55.34;96322.91;8312947;28;20230;-74
2023/01/18 18:08:57;;;;;;;6.83;5.70;;;;;;;5.93;55.02;96313.56;8313017;28;20234;-73
2023/01/18 18:13:00;;;;;;;7.37;5.93;;;;;;;5.97;54.69;96330.50;8313109;28;20225;-74
2023/01/18 18:17:04;;;;;;;9.07;7.37;;;;;;;5.81;55.55;96336.41;8313013;28;20329;-74
2023/01/18 18:21:09;;;;;;;23.70;16.80;;;;;;;6.11;54.65;96352.91;8312779;28;20230;-74
2023/01/18 18:25:12;;;;;;;15.83;13.60;;;;;;;5.52;55.94;96361.00;8313047;28;20537;-75
2023/01/18 18:29:15;;;;;;;21.73;16.73;;;;;;;5.99;54.78;96354.38;8312968;28;20297;-75
2023/01/18 18:33:18;;;;;;;13.93;9.27;;;;;;;5.97;54.71;96364.72;8312603;28;20226;-75
2023/01/18 18:37:23;;;;;;;10.67;8.37;;;;;;;6.06;54.72;96369.38;8312890;28;20226;-74
2023/01/18 18:41:26;;;;;;;17.53;11.03;;;;;;;6.10;54.98;96379.53;8312742;28;20237;-74
2023/01/18 18:45:30;;;;;;;12.47;9.30;;;;;;;5.97;55.05;96384.44;8312591;28;20536;-76
2023/01/18 18:49:33;;;;;;;12.47;9.27;;;;;;;6.07;54.38;96395.91;8312794;28;20226;-74
2023/01/18 18:53:37;;;;;;;10.10;8.23;;;;;;;5.92;54.69;96401.81;8312648;28;20222;-76
2023/01/18 18:57:41;;;;;;;8.40;7.50;;;;;;;6.09;54.15;96406.94;8312454;28;20229;-74
2023/01/18 19:01:44;;;;;;;9.90;8.90;;;;;;;5.92;54.39;96428.34;8312630;28;20537;-74
2023/01/18 19:05:47;;;;;;;9.53;8.53;;;;;;;6.00;54.51;96433.13;8313502;28;20542;-73
2023/01/18 19:09:52;;;;;;;10.53;8.17;;;;;;;6.02;53.83;96442.41;8318210;28;20541;-74
2023/01/18 19:13:55;;;;;;;9.83;7.43;;;;;;;6.01;54.21;96448.44;8318171;28;20229;-73
2023/01/18 19:17:58;;;;;;;9.00;4.67;;;;;;;8.15;85.00;96456.66;8318139;28;20256;-72
2023/01/18 19:22:01;;;;;;;7.93;6.53;;;;;;;10.17;62.91;96469.00;8317989;28;20256;-73
2023/01/18 19:26:06;;;;;;;9.00;7.73;;;;;;;7.92;51.79;96463.09;8317883;28;20233;-72
2023/01/18 19:30:11;;;;;;;10.47;7.87;;;;;;;7.45;51.25;96477.78;8318060;28;20417;-73
2023/01/18 19:34:14;;;;;;;10.03;7.83;;;;;;;6.95;51.29;96477.06;8317645;28;20222;-75
2023/01/18 19:38:17;;;;;;;7.83;6.93;;;;;;;6.36;51.27;96409.84;8317427;28;20536;-74
2023/01/18 19:42:21;;;;;;;10.40;8.03;;;;;;;6.70;51.69;96484.41;8317425;28;20228;-75
2023/01/18 19:46:24;;;;;;;9.70;7.73;;;;;;;6.52;51.16;96483.63;8316863;28;20435;-75
2023/01/18 19:50:28;;;;;;;9.33;6.97;;;;;;;6.33;51.53;96494.84;8316875;28;20233;-74
2023/01/18 19:54:31;;;;;;;10.00;7.30;;;;;;;6.05;51.08;96487.69;8316560;28;20230;-75
2023/01/18 19:58:37;;;;;;;10.43;7.33;;;;;;;5.91;50.96;96500.38;8316912;28;20222;-74
2023/01/18 20:02:41;;;;;;;10.87;8.40;;;;;;;6.04;51.73;96498.88;8316690;28;20222;-74